createdAt,value
2018-06-22T00:01:07.792Z,0.17
2018-06-22T00:03:37.815Z,0.20
2018-06-22T00:06:07.597Z,0.20
2018-06-22T00:08:37.344Z,0.17
2018-06-22T00:11:07.484Z,0.10
2018-06-22T00:13:37.607Z,0.17
2018-06-22T00:16:08.016Z,0.13
2018-06-22T00:18:38.052Z,0.20
2018-06-22T00:21:08.132Z,0.20
2018-06-22T00:23:38.079Z,0.20
2018-06-22T00:26:08.164Z,0.20
2018-06-22T00:28:38.215Z,0.20
2018-06-22T00:31:08.308Z,0.30
2018-06-22T00:33:38.337Z,0.30
2018-06-22T00:36:08.360Z,0.10
2018-06-22T00:38:38.405Z,0.20
2018-06-22T00:41:08.692Z,0.50
2018-06-22T00:43:38.735Z,0.20
2018-06-22T00:46:08.828Z,0.20
2018-06-22T00:48:38.639Z,0.13
2018-06-22T00:51:08.472Z,0.20
2018-06-22T00:53:49.608Z,0.20
2018-06-22T00:56:19.596Z,0.10
2018-06-22T00:58:49.695Z,0.20
2018-06-22T01:01:20.080Z,0.20
2018-06-22T01:03:50.184Z,0.10
2018-06-22T01:06:20.424Z,0.17
2018-06-22T01:08:50.491Z,0.20
2018-06-22T01:11:20.969Z,0.23
2018-06-22T01:13:51.239Z,0.20
2018-06-22T01:16:21.334Z,0.30
2018-06-22T01:18:51.632Z,0.20
2018-06-22T01:21:21.719Z,0.20
2018-06-22T01:23:51.876Z,0.40
2018-06-22T01:26:21.996Z,0.30
2018-06-22T01:28:56.235Z,0.20
2018-06-22T01:31:26.276Z,0.30
2018-06-22T01:33:56.524Z,0.20
2018-06-22T01:36:26.960Z,0.20
2018-06-22T01:38:57.167Z,0.20
2018-06-22T01:41:27.229Z,0.53
2018-06-22T01:43:57.333Z,0.20
2018-06-22T01:46:27.432Z,0.37
2018-06-22T01:48:57.472Z,0.20
2018-06-22T01:51:27.514Z,0.23
2018-06-22T01:53:57.545Z,0.20
2018-06-22T01:56:27.567Z,0.20
2018-06-22T01:58:57.624Z,0.10
2018-06-22T02:01:27.652Z,0.10
2018-06-22T02:03:57.699Z,0.20
2018-06-22T02:06:27.792Z,0.30
2018-06-22T02:08:57.900Z,0.30
2018-06-22T02:11:27.920Z,0.10
2018-06-22T02:13:58.021Z,0.47
2018-06-22T02:16:28.076Z,0.17
2018-06-22T02:18:58.134Z,0.10
2018-06-22T02:21:28.163Z,0.10
2018-06-22T02:23:58.252Z,0.30
2018-06-22T02:26:28.327Z,0.30
2018-06-22T02:28:58.604Z,0.23
2018-06-22T02:31:28.832Z,0.30
2018-06-22T02:33:58.940Z,0.30
2018-06-22T02:36:29.020Z,0.10
2018-06-22T02:38:59.036Z,0.30
2018-06-22T02:41:29.093Z,0.20
2018-06-22T02:43:59.192Z,0.30
2018-06-22T02:46:29.341Z,0.20
2018-06-22T02:48:59.456Z,0.30
2018-06-22T02:51:29.664Z,0.30
2018-06-22T02:53:59.678Z,0.30
2018-06-22T02:56:29.708Z,0.23
2018-06-22T02:58:59.776Z,0.30
2018-06-22T03:01:29.862Z,0.20
2018-06-22T03:03:59.989Z,0.10
2018-06-22T03:06:30.069Z,0.10
2018-06-22T03:09:00.172Z,0.40
2018-06-22T03:11:30.265Z,0.30
2018-06-22T03:14:00.360Z,0.33
2018-06-22T03:16:30.520Z,0.17
2018-06-22T03:19:00.604Z,0.20
2018-06-22T03:21:30.696Z,0.23
2018-06-22T03:24:00.788Z,0.30
2018-06-22T03:26:30.812Z,0.20
2018-06-22T03:29:00.892Z,0.30
2018-06-22T03:31:30.975Z,0.20
2018-06-22T03:34:01.048Z,0.20
2018-06-22T03:36:31.256Z,0.30
2018-06-22T03:39:01.316Z,0.30
2018-06-22T03:41:31.413Z,0.17
2018-06-22T03:44:01.445Z,0.30
2018-06-22T03:46:31.632Z,0.20
2018-06-22T03:49:01.701Z,0.20
2018-06-22T03:51:31.840Z,0.30
2018-06-22T03:54:02.229Z,0.40
2018-06-22T03:56:32.369Z,0.20
2018-06-22T03:59:02.559Z,0.20
2018-06-22T04:01:32.782Z,0.30
2018-06-22T04:04:02.848Z,0.17
2018-06-22T04:06:32.952Z,0.30
2018-06-22T04:09:03.241Z,0.30
2018-06-22T04:11:33.368Z,0.50
2018-06-22T04:14:03.530Z,0.63
2018-06-22T04:16:33.347Z,0.47
2018-06-22T04:19:03.212Z,0.30
2018-06-22T04:21:33.268Z,0.50
2018-06-22T04:24:03.380Z,0.50
2018-06-22T04:26:33.392Z,0.40
2018-06-22T04:29:03.516Z,0.40
2018-06-22T04:31:33.623Z,0.60
2018-06-22T04:34:03.704Z,0.53
2018-06-22T04:36:33.908Z,0.50
2018-06-22T04:39:06.018Z,0.60
2018-06-22T04:41:36.084Z,0.50
2018-06-22T04:44:06.268Z,0.40
2018-06-22T04:46:36.620Z,0.70
2018-06-22T04:49:06.788Z,0.40
2018-06-22T04:51:36.930Z,0.50
2018-06-22T04:54:07.009Z,0.30
2018-06-22T04:56:37.136Z,0.40
2018-06-22T04:59:07.240Z,0.30
2018-06-22T05:01:37.317Z,0.27
2018-06-22T05:04:07.440Z,0.47
2018-06-22T05:06:37.515Z,0.30
2018-06-22T05:09:08.292Z,0.40
2018-06-22T05:11:38.312Z,0.30
2018-06-22T05:14:08.456Z,0.40
2018-06-22T05:16:38.455Z,0.20
2018-06-22T05:19:08.486Z,0.30
2018-06-22T05:21:38.617Z,0.40
2018-06-22T05:24:08.648Z,0.43
2018-06-22T05:26:38.773Z,0.40
2018-06-22T05:29:08.930Z,0.63
2018-06-22T05:31:39.032Z,0.50
2018-06-22T05:34:09.268Z,0.40
2018-06-22T05:36:39.400Z,0.40
2018-06-22T05:39:10.859Z,0.30
2018-06-22T05:41:41.184Z,0.43
2018-06-22T05:44:11.450Z,0.30
2018-06-22T05:46:41.518Z,0.40
2018-06-22T05:49:11.604Z,0.33
2018-06-22T05:51:41.672Z,0.40
2018-06-22T05:54:11.744Z,0.50
2018-06-22T05:56:41.853Z,0.50
2018-06-22T05:59:11.872Z,0.50
2018-06-22T06:01:41.952Z,0.50
2018-06-22T06:04:12.020Z,0.93
2018-06-22T06:06:42.103Z,0.50
2018-06-22T06:09:12.824Z,0.50
2018-06-22T06:11:42.901Z,0.50
2018-06-22T06:14:12.977Z,0.40
2018-06-22T06:16:43.061Z,0.80
2018-06-22T06:19:13.370Z,3.33
2018-06-22T06:21:43.469Z,3.90
2018-06-22T06:24:13.551Z,2.63
2018-06-22T06:26:43.604Z,0.73
2018-06-22T06:29:13.707Z,0.80
2018-06-22T06:31:43.809Z,1.10
2018-06-22T06:34:13.933Z,2.50
2018-06-22T06:36:44.026Z,2.03
2018-06-22T06:39:14.078Z,1.10
2018-06-22T06:41:44.202Z,2.23
2018-06-22T06:44:14.274Z,0.87
2018-06-22T06:46:44.392Z,0.90
2018-06-22T06:49:14.420Z,1.60
2018-06-22T06:51:44.507Z,1.20
2018-06-22T06:54:14.607Z,1.00
2018-06-22T06:56:44.695Z,0.87
2018-06-22T06:59:14.493Z,0.97
2018-06-22T07:01:44.320Z,1.10
2018-06-22T07:04:14.420Z,1.20
2018-06-22T07:06:44.478Z,0.90
2018-06-22T07:09:14.572Z,1.03
2018-06-22T07:11:44.677Z,1.20
2018-06-22T07:14:14.786Z,1.00
2018-06-22T07:16:44.868Z,1.20
2018-06-22T07:19:14.956Z,3.30
2018-06-22T07:21:45.059Z,1.57
2018-06-22T07:24:15.614Z,1.30
2018-06-22T07:26:46.064Z,1.20
2018-06-22T07:29:16.213Z,0.90
2018-06-22T07:31:46.301Z,1.23
2018-06-22T07:34:16.381Z,1.30
2018-06-22T07:36:46.484Z,2.03
2018-06-22T07:39:16.604Z,1.37
2018-06-22T07:41:46.728Z,1.43
2018-06-22T07:44:16.787Z,1.47
2018-06-22T07:46:46.868Z,1.50
2018-06-22T07:49:16.947Z,1.20
2018-06-22T07:51:47.103Z,1.73
2018-06-22T07:54:18.089Z,7.17
2018-06-22T07:56:48.188Z,3.57
2018-06-22T07:59:18.345Z,7.50
2018-06-22T08:01:48.477Z,1.80
2018-06-22T08:04:18.619Z,5.87
2018-06-22T08:06:48.788Z,2.50
2018-06-22T08:09:18.585Z,2.63
2018-06-22T08:11:48.444Z,1.30
2018-06-22T08:14:18.567Z,1.00
2018-06-22T08:16:48.705Z,3.70
2018-06-22T08:19:18.844Z,3.40
2018-06-22T08:21:48.924Z,2.10
2018-06-22T08:24:19.004Z,1.63
2018-06-22T08:26:49.180Z,2.03
2018-06-22T08:29:19.280Z,1.40
2018-06-22T08:31:49.364Z,1.33
2018-06-22T08:34:19.444Z,1.57
2018-06-22T08:36:49.606Z,1.60
2018-06-22T08:39:19.720Z,1.50
2018-06-22T08:41:49.975Z,1.60
2018-06-22T08:44:20.012Z,2.10
2018-06-22T08:46:49.786Z,1.70
2018-06-22T08:49:19.696Z,1.27
2018-06-22T08:51:49.804Z,1.63
2018-06-22T08:54:19.880Z,1.40
2018-06-22T08:56:49.972Z,1.37
2018-06-22T08:59:20.056Z,1.40
2018-06-22T09:01:50.308Z,3.03
2018-06-22T09:04:20.467Z,1.50
2018-06-22T09:06:50.633Z,1.70
2018-06-22T09:09:20.768Z,1.20
2018-06-22T09:11:50.923Z,1.90
2018-06-22T09:14:20.988Z,1.63
2018-06-22T09:16:51.120Z,1.70
2018-06-22T09:19:21.180Z,0.90
2018-06-22T09:21:51.228Z,1.07
2018-06-22T09:24:21.332Z,0.97
2018-06-22T09:26:51.416Z,1.17
2018-06-22T09:29:21.534Z,1.30
2018-06-22T09:31:51.592Z,0.97
2018-06-22T09:34:21.723Z,0.80
2018-06-22T09:36:51.872Z,1.00
2018-06-22T09:39:21.951Z,1.30
2018-06-22T09:41:52.096Z,0.90
2018-06-22T09:44:33.344Z,1.20
2018-06-22T09:47:03.561Z,1.03
2018-06-22T09:49:33.640Z,0.80
2018-06-22T09:52:03.792Z,0.90
2018-06-22T09:54:33.924Z,0.90
2018-06-22T09:57:04.012Z,0.90
2018-06-22T09:59:34.105Z,0.90
2018-06-22T10:02:04.250Z,1.17
2018-06-22T10:04:34.372Z,0.80
2018-06-22T10:07:04.540Z,0.90
2018-06-22T10:09:34.600Z,1.20
2018-06-22T10:12:04.710Z,0.80
2018-06-22T10:14:35.000Z,1.03
2018-06-22T10:17:05.213Z,0.70
2018-06-22T10:19:35.353Z,0.70
2018-06-22T10:22:05.416Z,0.80
2018-06-22T10:24:35.432Z,0.73
2018-06-22T10:27:05.585Z,0.70
2018-06-22T10:29:35.656Z,0.67
2018-06-22T10:32:05.796Z,0.60
2018-06-22T10:34:35.932Z,0.80
2018-06-22T10:37:05.975Z,0.70
2018-06-22T10:39:36.108Z,0.90
2018-06-22T10:42:06.343Z,0.60
2018-06-22T10:44:36.480Z,0.70
2018-06-22T10:47:06.582Z,0.73
2018-06-22T10:49:36.727Z,0.70
2018-06-22T10:52:06.947Z,0.73
2018-06-22T10:54:37.166Z,0.80
2018-06-22T10:57:08.105Z,0.80
2018-06-22T10:59:38.284Z,0.70
2018-06-22T11:02:08.325Z,0.50
2018-06-22T11:04:38.419Z,2.10
2018-06-22T11:07:08.521Z,1.30
2018-06-22T11:09:38.764Z,1.40
2018-06-22T11:12:08.862Z,0.63
2018-06-22T11:14:38.944Z,0.83
2018-06-22T11:17:09.100Z,2.73
2018-06-22T11:19:39.400Z,1.80
2018-06-22T11:22:09.504Z,1.20
2018-06-22T11:24:39.648Z,0.77
2018-06-22T11:27:09.826Z,0.63
2018-06-22T11:29:39.940Z,1.17
2018-06-22T11:32:09.978Z,0.40
2018-06-22T11:34:40.096Z,0.90
2018-06-22T11:37:10.209Z,0.70
2018-06-22T11:39:40.373Z,0.53
2018-06-22T11:42:10.496Z,0.40
2018-06-22T11:44:40.612Z,0.67
2018-06-22T11:47:10.685Z,0.50
2018-06-22T11:49:40.798Z,0.60
2018-06-22T11:52:10.924Z,0.50
2018-06-22T11:54:41.004Z,0.50
2018-06-22T11:57:11.132Z,0.83
2018-06-22T11:59:41.370Z,0.50
2018-06-22T12:02:11.508Z,0.60
2018-06-22T12:04:41.632Z,0.60
2018-06-22T12:07:11.762Z,0.50
2018-06-22T12:09:41.844Z,0.60
2018-06-22T12:12:11.979Z,0.60
2018-06-22T12:14:42.076Z,0.57
2018-06-22T12:17:12.216Z,0.60
2018-06-22T12:19:42.384Z,0.53
2018-06-22T12:22:12.516Z,0.60
2018-06-22T12:24:42.263Z,0.73
2018-06-22T12:27:12.136Z,0.33
2018-06-22T12:29:42.188Z,0.50
2018-06-22T12:32:12.292Z,0.50
2018-06-22T12:34:42.412Z,0.33
2018-06-22T12:37:12.540Z,0.40
2018-06-22T12:39:42.601Z,0.47
2018-06-22T12:42:12.719Z,0.47
2018-06-22T12:44:42.796Z,0.50
2018-06-22T12:47:12.864Z,0.40
2018-06-22T12:49:42.972Z,0.50
2018-06-22T12:52:13.084Z,0.50
2018-06-22T12:54:43.253Z,0.40
2018-06-22T12:57:13.337Z,0.47
2018-06-22T12:59:43.434Z,0.30
2018-06-22T13:02:13.548Z,0.50
2018-06-22T13:04:43.655Z,0.50
2018-06-22T13:07:13.820Z,0.40
2018-06-22T13:09:43.820Z,0.50
2018-06-22T13:12:13.960Z,0.30
2018-06-22T13:14:44.057Z,0.50
2018-06-22T13:17:14.249Z,0.30
2018-06-22T13:19:44.321Z,0.20
2018-06-22T13:22:14.448Z,0.30
2018-06-22T13:24:44.548Z,0.10
2018-06-22T13:27:14.680Z,0.20
2018-06-22T13:29:44.737Z,0.37
2018-06-22T13:32:14.835Z,0.30
2018-06-22T13:34:45.009Z,0.40
2018-06-22T13:37:15.105Z,0.30
2018-06-22T13:39:45.287Z,0.30
2018-06-22T13:42:15.420Z,0.30
2018-06-22T13:44:45.472Z,0.27
2018-06-22T13:47:15.684Z,0.20
2018-06-22T13:49:46.492Z,0.20
2018-06-22T13:52:16.530Z,0.10
2018-06-22T13:54:46.556Z,0.10
2018-06-22T13:57:16.612Z,0.10
2018-06-22T13:59:46.720Z,0.10
2018-06-22T14:02:16.838Z,0.10
2018-06-22T14:04:52.143Z,0.10
2018-06-22T14:07:22.380Z,0.20
2018-06-22T14:09:52.488Z,0.10
2018-06-22T14:12:22.577Z,0.10
2018-06-22T14:14:52.607Z,0.10
2018-06-22T14:17:22.740Z,0.07
2018-06-22T14:19:52.830Z,0.20
2018-06-22T14:22:22.892Z,0.20
2018-06-22T14:24:52.971Z,0.27
2018-06-22T14:27:23.348Z,0.10
2018-06-22T14:29:53.499Z,0.10
2018-06-22T14:32:23.596Z,0.03
2018-06-22T14:34:53.697Z,0.10
2018-06-22T14:37:23.813Z,0.30
2018-06-22T14:39:54.008Z,0.10
2018-06-22T14:42:24.296Z,0.83
2018-06-22T14:44:54.480Z,0.10
2018-06-22T14:47:24.590Z,0.00
2018-06-22T14:49:54.776Z,0.20
2018-06-22T14:52:24.505Z,0.13
2018-06-22T14:54:59.596Z,0.10
2018-06-22T14:57:35.011Z,0.10
2018-06-22T15:00:10.478Z,0.10
2018-06-22T15:04:50.348Z,0.00
2018-06-22T15:07:25.743Z,0.10
2018-06-22T15:09:55.829Z,0.10
2018-06-22T15:12:25.946Z,0.10
2018-06-22T15:14:56.100Z,0.03
2018-06-22T15:17:25.923Z,0.10
2018-06-22T15:19:55.772Z,0.10
2018-06-22T15:22:25.864Z,0.10
2018-06-22T15:24:56.058Z,0.27
2018-06-22T15:27:26.092Z,0.20
2018-06-22T15:29:56.289Z,0.10
2018-06-22T15:32:26.399Z,0.07
2018-06-22T15:35:01.792Z,0.07
2018-06-22T15:37:37.220Z,0.10
2018-06-22T15:40:12.686Z,0.00
2018-06-22T15:42:48.152Z,0.00
2018-06-22T15:45:23.372Z,0.00
2018-06-22T15:47:58.662Z,0.00
2018-06-22T15:50:33.940Z,0.10
2018-06-22T15:53:09.071Z,0.13
2018-06-22T15:55:41.900Z,0.00
2018-06-22T15:58:12.016Z,0.10
2018-06-22T16:00:42.095Z,0.00
2018-06-22T16:03:17.489Z,0.00
2018-06-22T16:05:47.503Z,0.00
2018-06-22T16:08:17.604Z,0.10
2018-06-22T16:10:47.740Z,0.10
2018-06-22T16:13:20.898Z,0.10
2018-06-22T16:15:56.444Z,0.10
2018-06-22T16:18:31.848Z,0.10
2018-06-22T16:21:07.201Z,0.00
2018-06-22T16:23:42.492Z,0.10
2018-06-22T16:26:17.804Z,0.00
2018-06-22T16:28:47.935Z,0.00
2018-06-22T16:31:18.049Z,0.00
2018-06-22T16:33:56.604Z,0.03
2018-06-22T16:36:27.776Z,0.10
2018-06-22T16:38:57.932Z,0.10
2018-06-22T16:41:28.072Z,0.10
2018-06-22T16:43:58.176Z,0.00
2018-06-22T16:46:28.264Z,0.10
2018-06-22T16:48:58.380Z,0.10
2018-06-22T16:51:28.495Z,0.10
2018-06-22T16:53:58.648Z,0.10
2018-06-22T16:56:28.885Z,0.10
2018-06-22T16:59:01.880Z,0.10
2018-06-22T17:01:32.408Z,0.10
2018-06-22T17:04:02.553Z,0.10
2018-06-22T17:06:37.828Z,0.10
2018-06-22T17:09:13.740Z,0.20
2018-06-22T17:11:49.047Z,0.10
2018-06-22T17:14:24.475Z,0.27
2018-06-22T17:16:59.775Z,0.27
2018-06-22T17:19:29.860Z,0.27
2018-06-22T17:22:00.035Z,0.23
2018-06-22T17:24:30.104Z,0.10
2018-06-22T17:27:00.247Z,0.10
2018-06-22T17:29:30.343Z,0.20
2018-06-22T17:32:00.132Z,0.10
2018-06-22T17:34:29.933Z,0.20
2018-06-22T17:37:00.022Z,0.10
2018-06-22T17:39:30.148Z,0.20
2018-06-22T17:42:00.385Z,0.10
2018-06-22T17:44:30.459Z,0.20
2018-06-22T17:47:00.540Z,0.13
2018-06-22T17:49:30.628Z,0.20
2018-06-22T17:52:00.714Z,0.10
2018-06-22T17:54:30.848Z,0.27
2018-06-22T17:57:00.960Z,0.10
2018-06-22T17:59:36.348Z,0.30
2018-06-22T18:02:12.140Z,0.17
2018-06-22T18:04:46.464Z,0.20
2018-06-22T18:07:21.908Z,0.20
2018-06-22T18:09:57.356Z,0.10
2018-06-22T18:12:32.758Z,0.30
2018-06-22T18:15:02.784Z,0.30
2018-06-22T18:17:32.812Z,0.27
2018-06-22T18:20:02.949Z,0.13
2018-06-22T18:22:33.052Z,0.30
2018-06-22T18:25:03.145Z,0.10
2018-06-22T18:27:36.871Z,0.20
2018-06-22T18:30:09.559Z,0.20
2018-06-22T18:32:39.644Z,0.10
2018-06-22T18:35:11.344Z,0.20
2018-06-22T18:37:41.738Z,0.13
2018-06-22T18:40:12.237Z,0.20
2018-06-22T18:42:42.252Z,0.20
2018-06-22T18:45:12.752Z,0.57
2018-06-22T18:47:42.923Z,0.30
2018-06-22T18:50:13.040Z,0.20
2018-06-22T18:52:48.344Z,0.20
2018-06-22T18:55:23.786Z,0.20
2018-06-22T18:57:59.209Z,0.10
2018-06-22T19:00:34.572Z,0.10
2018-06-22T19:03:09.932Z,0.30
2018-06-22T19:05:40.030Z,0.30
2018-06-22T19:08:09.783Z,0.20
2018-06-22T19:10:39.624Z,0.20
2018-06-22T19:13:09.737Z,0.27
2018-06-22T19:15:39.926Z,0.20
2018-06-22T19:18:10.028Z,0.10
2018-06-22T19:20:40.160Z,0.10
2018-06-22T19:23:10.231Z,0.20
2018-06-22T19:25:40.324Z,0.20
2018-06-22T19:28:10.483Z,0.40
2018-06-22T19:30:40.605Z,0.50
2018-06-22T19:33:10.764Z,0.20
2018-06-22T19:35:40.788Z,0.20
2018-06-22T19:38:10.900Z,0.30
2018-06-22T19:40:41.284Z,0.30
2018-06-22T19:43:16.519Z,0.20
2018-06-22T19:45:51.956Z,0.20
2018-06-22T19:48:23.569Z,0.30
2018-06-22T19:50:58.893Z,0.20
2018-06-22T19:53:34.356Z,0.30
2018-06-22T19:56:04.449Z,0.20
2018-06-22T19:58:34.674Z,0.20
2018-06-22T20:01:04.858Z,0.30
2018-06-22T20:03:34.970Z,0.30
2018-06-22T20:06:05.096Z,0.30
2018-06-22T20:08:35.124Z,0.30
2018-06-22T20:11:05.203Z,0.17
2018-06-22T20:13:35.384Z,0.27
2018-06-22T20:16:05.534Z,0.20
2018-06-22T20:18:35.640Z,0.20
2018-06-22T20:21:07.445Z,0.30
2018-06-22T20:23:37.561Z,0.30
2018-06-22T20:26:07.648Z,0.30
2018-06-22T20:28:37.852Z,0.20
2018-06-22T20:31:08.089Z,0.40
2018-06-22T20:33:38.162Z,0.30
2018-06-22T20:36:13.392Z,0.20
2018-06-22T20:38:48.605Z,0.30
2018-06-22T20:41:23.805Z,0.23
2018-06-22T20:43:59.128Z,0.20
2018-06-22T20:46:34.228Z,0.63
2018-06-22T20:49:09.741Z,0.30
2018-06-22T20:51:43.992Z,0.37
2018-06-22T20:54:14.628Z,0.40
2018-06-22T20:56:44.636Z,0.50
2018-06-22T20:59:14.764Z,0.30
2018-06-22T21:01:44.824Z,0.30
2018-06-22T21:04:15.052Z,0.20
2018-06-22T21:06:45.208Z,0.37
2018-06-22T21:09:15.632Z,0.30
2018-06-22T21:11:45.716Z,0.10
2018-06-22T21:14:15.820Z,0.40
2018-06-22T21:16:45.932Z,0.43
2018-06-22T21:19:15.992Z,0.40
2018-06-22T21:21:51.280Z,0.40
2018-06-22T21:24:21.412Z,0.33
2018-06-22T21:26:51.497Z,0.50
2018-06-22T21:29:26.696Z,0.33
2018-06-22T21:32:01.963Z,0.30
2018-06-22T21:34:32.311Z,0.40
2018-06-22T21:37:07.676Z,0.40
2018-06-22T21:39:38.060Z,0.50
2018-06-22T21:42:08.384Z,0.30
2018-06-22T21:44:38.451Z,0.30
2018-06-22T21:47:08.184Z,0.40
2018-06-22T21:49:38.400Z,0.43
2018-06-22T21:52:08.732Z,0.40
2018-06-22T21:54:38.755Z,0.30
2018-06-22T21:57:08.856Z,0.40
2018-06-22T21:59:38.925Z,0.53
2018-06-22T22:02:09.009Z,0.47
2018-06-22T22:04:39.072Z,0.40
2018-06-22T22:07:08.840Z,0.40
2018-06-22T22:09:41.448Z,0.30
2018-06-22T22:12:11.818Z,0.57
2018-06-22T22:14:42.278Z,0.30
2018-06-22T22:17:12.364Z,0.40
2018-06-22T22:19:42.408Z,0.40
2018-06-22T22:22:12.698Z,0.50
2018-06-22T22:24:42.756Z,0.47
2018-06-22T22:27:13.612Z,0.40
2018-06-22T22:29:43.675Z,0.40
2018-06-22T22:32:13.801Z,0.30
2018-06-22T22:34:43.852Z,0.40
2018-06-22T22:37:13.960Z,0.40
2018-06-22T22:39:44.008Z,0.50
2018-06-22T22:42:14.045Z,0.30
2018-06-22T22:44:44.094Z,0.40
2018-06-22T22:47:14.096Z,0.60
2018-06-22T22:49:44.158Z,0.50
2018-06-22T22:52:14.205Z,0.50
2018-06-22T22:54:44.312Z,0.60
2018-06-22T22:57:14.440Z,0.47
2018-06-22T22:59:44.571Z,0.47
2018-06-22T23:02:14.648Z,0.47
2018-06-22T23:04:44.751Z,0.50
2018-06-22T23:07:14.764Z,0.40
2018-06-22T23:09:44.760Z,0.60
2018-06-22T23:12:14.592Z,0.37
2018-06-22T23:14:44.684Z,0.40
2018-06-22T23:17:14.760Z,0.33
2018-06-22T23:19:44.810Z,0.40
2018-06-22T23:22:14.856Z,0.37
2018-06-22T23:24:44.817Z,0.50
2018-06-22T23:27:14.925Z,0.30
2018-06-22T23:29:44.960Z,0.50
2018-06-22T23:32:14.987Z,0.40
2018-06-22T23:34:44.695Z,0.50
2018-06-22T23:37:14.531Z,0.30
2018-06-22T23:39:45.600Z,0.40
2018-06-22T23:42:15.716Z,0.33
2018-06-22T23:44:45.788Z,0.40
2018-06-22T23:47:15.804Z,0.40
2018-06-22T23:49:45.800Z,0.40
2018-06-22T23:52:16.207Z,0.43
2018-06-22T23:54:46.192Z,0.40
2018-06-22T23:57:16.273Z,0.47
2018-06-22T23:59:46.386Z,0.50
